createdAt,value
2019-06-26T00:00:24.851Z,64.93
2019-06-26T00:02:54.035Z,72.03
2019-06-26T00:05:23.290Z,70.80
2019-06-26T00:07:52.350Z,78.10
2019-06-26T00:10:21.705Z,74.83
2019-06-26T00:12:50.814Z,65.17
2019-06-26T00:15:19.970Z,68.87
2019-06-26T00:17:49.034Z,64.27
2019-06-26T00:20:20.065Z,59.87
2019-06-26T00:22:49.090Z,57.60
2019-06-26T00:25:18.134Z,49.30
2019-06-26T00:27:47.198Z,47.27
2019-06-26T00:30:16.382Z,43.33
2019-06-26T00:32:45.417Z,43.23
2019-06-26T00:35:14.504Z,41.00
2019-06-26T00:37:43.575Z,39.53
2019-06-26T00:40:13.251Z,45.93
2019-06-26T00:42:42.306Z,36.80
2019-06-26T00:45:11.844Z,31.40
2019-06-26T00:47:40.826Z,32.20
2019-06-26T00:50:10.672Z,29.90
2019-06-26T00:52:39.779Z,39.70
2019-06-26T00:55:08.817Z,31.60
2019-06-26T00:57:37.896Z,30.00
2019-06-26T01:00:10.737Z,29.90
2019-06-26T01:02:39.901Z,33.20
2019-06-26T01:05:10.779Z,36.80
2019-06-26T01:07:39.913Z,34.20
2019-06-26T01:10:09.685Z,38.67
2019-06-26T01:12:38.725Z,27.47
2019-06-26T01:15:08.910Z,31.30
2019-06-26T01:17:38.030Z,33.83
2019-06-26T01:20:07.161Z,29.67
2019-06-26T01:22:36.383Z,30.17
2019-06-26T01:25:05.928Z,31.00
2019-06-26T01:27:34.998Z,37.17
2019-06-26T01:30:04.622Z,33.70
2019-06-26T01:32:33.616Z,30.23
2019-06-26T01:35:02.618Z,34.23
2019-06-26T01:37:31.755Z,37.60
2019-06-26T01:40:00.821Z,35.93
2019-06-26T01:42:29.901Z,24.73
2019-06-26T01:44:59.055Z,41.30
2019-06-26T01:47:28.069Z,30.33
2019-06-26T01:49:57.223Z,29.03
2019-06-26T01:52:26.261Z,38.10
2019-06-26T01:54:55.324Z,38.30
2019-06-26T01:57:24.743Z,49.33
2019-06-26T01:59:53.917Z,37.87
2019-06-26T02:02:22.946Z,31.93
2019-06-26T02:04:52.013Z,40.70
2019-06-26T02:07:21.056Z,36.80
2019-06-26T02:09:50.129Z,40.87
2019-06-26T02:12:19.219Z,39.93
2019-06-26T02:14:48.319Z,34.77
2019-06-26T02:17:17.422Z,31.60
2019-06-26T02:19:46.502Z,35.60
2019-06-26T02:22:15.557Z,40.83
2019-06-26T02:24:44.612Z,29.63
2019-06-26T02:27:13.769Z,31.70
2019-06-26T02:29:42.913Z,38.50
2019-06-26T02:32:12.020Z,26.60
2019-06-26T02:34:41.013Z,26.97
2019-06-26T02:37:09.919Z,28.53
2019-06-26T02:39:38.974Z,25.73
2019-06-26T02:42:08.023Z,24.10
2019-06-26T02:44:52.072Z,21.77
2019-06-26T02:47:19.850Z,25.47
2019-06-26T02:49:38.527Z,24.57
2019-06-26T02:52:08.047Z,32.03
2019-06-26T02:54:37.022Z,27.47
2019-06-26T02:57:06.074Z,24.80
2019-06-26T02:59:35.183Z,36.60
2019-06-26T03:02:09.095Z,33.27
2019-06-26T03:04:38.157Z,20.90
2019-06-26T03:07:07.234Z,41.57
2019-06-26T03:09:36.294Z,34.93
2019-06-26T03:12:05.449Z,33.80
2019-06-26T03:14:34.483Z,32.90
2019-06-26T03:17:03.466Z,30.77
2019-06-26T03:19:32.518Z,37.20
2019-06-26T03:22:01.626Z,35.90
2019-06-26T03:24:30.612Z,30.47
2019-06-26T03:26:59.703Z,30.73
2019-06-26T03:29:28.780Z,35.73
2019-06-26T03:31:57.839Z,35.17
2019-06-26T03:34:26.847Z,35.80
2019-06-26T03:36:55.897Z,30.93
2019-06-26T03:39:24.950Z,35.30
2019-06-26T03:41:53.997Z,34.03
2019-06-26T03:44:23.002Z,29.57
2019-06-26T03:46:51.995Z,35.20
2019-06-26T03:49:20.969Z,33.23
2019-06-26T03:51:49.875Z,28.10
2019-06-26T03:54:18.850Z,27.53
2019-06-26T03:56:47.853Z,24.10
2019-06-26T03:59:16.798Z,32.50
2019-06-26T04:01:45.865Z,28.67
2019-06-26T04:04:14.936Z,22.67
2019-06-26T04:06:44.020Z,27.80
2019-06-26T04:09:12.980Z,21.97
2019-06-26T04:11:42.649Z,26.37
2019-06-26T04:14:11.712Z,31.40
2019-06-26T04:16:40.774Z,21.70
2019-06-26T04:19:09.880Z,23.67
2019-06-26T04:21:38.841Z,22.53
2019-06-26T04:24:08.707Z,30.23
2019-06-26T04:26:37.683Z,28.87
2019-06-26T04:29:06.786Z,39.60
2019-06-26T04:31:36.111Z,34.80
2019-06-26T04:34:05.207Z,30.27
2019-06-26T04:36:34.233Z,25.97
2019-06-26T04:39:03.753Z,26.20
2019-06-26T04:41:32.758Z,33.43
2019-06-26T04:44:01.951Z,28.37
2019-06-26T04:46:31.041Z,29.80
2019-06-26T04:48:59.941Z,29.60
2019-06-26T04:51:28.917Z,33.63
2019-06-26T04:53:57.917Z,28.90
2019-06-26T04:56:27.132Z,27.13
2019-06-26T04:58:56.188Z,25.93
2019-06-26T05:01:25.437Z,21.87
2019-06-26T05:03:54.557Z,24.90
2019-06-26T05:06:23.653Z,29.13
2019-06-26T05:08:52.717Z,26.47
2019-06-26T05:11:21.846Z,24.23
2019-06-26T05:13:50.997Z,18.63
2019-06-26T05:16:20.615Z,25.63
2019-06-26T05:18:50.126Z,35.10
2019-06-26T05:21:19.177Z,22.80
2019-06-26T05:23:48.273Z,30.67
2019-06-26T05:26:17.439Z,23.00
2019-06-26T05:28:46.492Z,25.20
2019-06-26T05:31:15.494Z,29.10
2019-06-26T05:33:44.540Z,28.30
2019-06-26T05:36:13.597Z,36.47
2019-06-26T05:38:42.589Z,28.30
2019-06-26T05:41:11.755Z,35.97
2019-06-26T05:43:40.785Z,24.20
2019-06-26T05:46:09.876Z,22.00
2019-06-26T05:48:38.914Z,35.77
2019-06-26T05:51:07.985Z,28.53
2019-06-26T05:53:36.955Z,40.03
2019-06-26T05:56:06.745Z,29.37
2019-06-26T05:58:35.816Z,37.80
2019-06-26T06:01:04.850Z,24.60
2019-06-26T06:03:33.889Z,37.77
2019-06-26T06:06:02.920Z,34.13
2019-06-26T06:08:31.888Z,29.57
2019-06-26T06:11:00.958Z,39.60
2019-06-26T06:13:29.945Z,32.53
2019-06-26T06:15:58.986Z,32.80
2019-06-26T06:18:28.024Z,27.23
2019-06-26T06:20:57.089Z,26.70
2019-06-26T06:23:26.041Z,31.40
2019-06-26T06:25:55.053Z,29.47
2019-06-26T06:28:24.085Z,30.87
2019-06-26T06:30:53.066Z,29.43
2019-06-26T06:33:22.137Z,28.90
2019-06-26T06:35:51.193Z,32.97
2019-06-26T06:38:20.175Z,37.13
2019-06-26T06:40:49.292Z,33.77
2019-06-26T06:43:19.075Z,29.90
2019-06-26T06:45:48.132Z,32.07
2019-06-26T06:48:17.186Z,36.27
2019-06-26T06:50:46.233Z,37.10
2019-06-26T06:53:15.196Z,41.00
2019-06-26T06:55:44.249Z,35.17
2019-06-26T06:58:13.288Z,40.53
2019-06-26T07:00:42.484Z,35.03
2019-06-26T07:03:11.569Z,40.00
2019-06-26T07:05:40.602Z,43.60
2019-06-26T07:08:09.648Z,38.37
2019-06-26T07:10:38.762Z,37.00
2019-06-26T07:13:07.802Z,41.70
2019-06-26T07:15:36.853Z,47.50
2019-06-26T07:18:05.968Z,40.13
2019-06-26T07:20:35.025Z,38.90
2019-06-26T07:23:04.078Z,41.47
2019-06-26T07:25:33.202Z,43.93
2019-06-26T07:28:02.345Z,41.57
2019-06-26T07:30:31.454Z,40.23
2019-06-26T07:33:00.548Z,49.97
2019-06-26T07:35:29.673Z,40.43
2019-06-26T07:38:00.208Z,47.93
2019-06-26T07:40:29.748Z,46.43
2019-06-26T07:42:58.778Z,43.23
2019-06-26T07:45:27.883Z,42.63
2019-06-26T07:47:57.022Z,44.97
2019-06-26T07:50:26.148Z,43.43
2019-06-26T07:52:55.426Z,41.27
2019-06-26T07:55:24.585Z,38.60
2019-06-26T07:57:53.812Z,37.63
2019-06-26T08:00:23.371Z,38.40
2019-06-26T08:02:52.519Z,42.13
2019-06-26T08:05:21.803Z,39.97
2019-06-26T08:07:50.954Z,35.80
2019-06-26T08:10:20.272Z,35.30
2019-06-26T08:12:49.368Z,37.17
2019-06-26T08:15:19.044Z,33.83
2019-06-26T08:17:59.829Z,33.67
2019-06-26T08:20:19.688Z,32.50
2019-06-26T08:22:48.693Z,33.20
2019-06-26T08:25:17.813Z,28.63
2019-06-26T08:27:46.914Z,28.77
2019-06-26T08:30:16.494Z,29.10
2019-06-26T08:32:45.573Z,30.83
2019-06-26T08:35:14.947Z,29.13
2019-06-26T08:37:43.977Z,27.47
2019-06-26T08:40:14.724Z,26.73
2019-06-26T08:42:43.734Z,24.00
2019-06-26T08:45:12.871Z,28.13
2019-06-26T08:47:42.136Z,22.03
2019-06-26T08:50:11.814Z,24.43
2019-06-26T08:52:40.810Z,22.67
2019-06-26T08:55:10.207Z,24.40
2019-06-26T08:57:39.353Z,21.30
2019-06-26T09:00:09.318Z,22.63
2019-06-26T09:02:38.584Z,25.60
2019-06-26T09:05:08.298Z,25.20
2019-06-26T09:07:37.571Z,23.97
2019-06-26T09:10:08.240Z,31.93
2019-06-26T09:12:37.285Z,22.10
2019-06-26T09:15:06.855Z,23.93
2019-06-26T09:17:36.373Z,25.33
2019-06-26T09:20:06.167Z,23.30
2019-06-26T09:22:35.226Z,23.70
2019-06-26T09:25:20.209Z,21.90
2019-06-26T09:27:35.368Z,24.00
2019-06-26T09:30:05.375Z,20.70
2019-06-26T09:32:34.444Z,21.77
2019-06-26T09:35:03.982Z,18.67
2019-06-26T09:37:33.047Z,22.80
2019-06-26T09:40:02.132Z,21.20
2019-06-26T09:42:31.225Z,23.77
2019-06-26T09:45:00.261Z,23.90
2019-06-26T09:47:31.081Z,19.67
2019-06-26T09:50:00.331Z,21.93
2019-06-26T09:52:29.471Z,21.63
2019-06-26T09:54:58.825Z,21.07
2019-06-26T09:57:27.814Z,19.87
2019-06-26T09:59:56.806Z,17.90
2019-06-26T10:02:25.895Z,21.57
2019-06-26T10:04:54.963Z,18.97
2019-06-26T10:07:24.023Z,28.00
2019-06-26T10:09:53.038Z,21.93
2019-06-26T10:12:22.149Z,23.40
2019-06-26T10:14:51.187Z,17.70
2019-06-26T10:17:20.188Z,18.80
2019-06-26T10:19:49.356Z,17.53
2019-06-26T10:22:18.407Z,21.07
2019-06-26T10:24:47.500Z,19.63
2019-06-26T10:27:16.446Z,19.93
2019-06-26T10:29:45.436Z,21.07
2019-06-26T10:32:14.564Z,20.20
2019-06-26T10:34:43.670Z,17.47
2019-06-26T10:37:12.736Z,18.80
2019-06-26T10:39:41.878Z,19.93
2019-06-26T10:42:10.937Z,23.03
2019-06-26T10:44:40.081Z,24.63
2019-06-26T10:47:09.088Z,21.20
2019-06-26T10:49:38.204Z,23.23
2019-06-26T10:52:07.444Z,20.10
2019-06-26T10:54:36.612Z,22.27
2019-06-26T10:57:05.799Z,23.67
2019-06-26T10:59:34.872Z,24.10
2019-06-26T11:02:04.430Z,21.57
2019-06-26T11:04:33.518Z,19.50
2019-06-26T11:07:02.489Z,20.97
2019-06-26T11:09:31.547Z,25.07
2019-06-26T11:12:00.714Z,18.87
2019-06-26T11:14:29.583Z,21.37
2019-06-26T11:16:58.679Z,23.57
2019-06-26T11:19:42.554Z,22.10
2019-06-26T11:21:58.547Z,21.77
2019-06-26T11:24:27.551Z,24.33
2019-06-26T11:26:56.521Z,29.73
2019-06-26T11:29:25.535Z,22.10
2019-06-26T11:31:54.725Z,27.90
2019-06-26T11:34:23.976Z,27.50
2019-06-26T11:37:03.167Z,30.77
2019-06-26T11:39:23.960Z,29.27
2019-06-26T11:41:53.113Z,28.70
2019-06-26T11:44:22.107Z,27.47
2019-06-26T11:46:51.246Z,33.00
2019-06-26T11:49:20.305Z,28.80
2019-06-26T11:51:49.524Z,25.17
2019-06-26T11:54:18.677Z,31.30
2019-06-26T11:56:47.756Z,23.30
2019-06-26T11:59:16.886Z,22.97
2019-06-26T12:01:45.968Z,23.60
2019-06-26T12:04:15.029Z,24.70
2019-06-26T12:06:46.100Z,25.27
2019-06-26T12:09:15.059Z,23.03
2019-06-26T12:11:44.198Z,21.90
2019-06-26T12:14:13.337Z,20.33
2019-06-26T12:16:42.472Z,23.30
2019-06-26T12:19:11.721Z,21.60
2019-06-26T12:21:40.831Z,18.60
2019-06-26T12:24:10.013Z,18.30
2019-06-26T12:26:39.062Z,20.70
2019-06-26T12:29:08.247Z,17.80
2019-06-26T12:31:37.332Z,13.10
2019-06-26T12:34:06.427Z,14.80
2019-06-26T12:36:35.553Z,15.27
2019-06-26T12:39:06.181Z,23.37
2019-06-26T12:41:35.194Z,14.37
2019-06-26T12:44:04.445Z,14.90
2019-06-26T12:46:33.497Z,11.00
2019-06-26T12:49:02.596Z,10.20
2019-06-26T12:51:31.693Z,13.80
2019-06-26T12:54:00.809Z,11.20
2019-06-26T12:56:29.965Z,15.30
2019-06-26T12:59:00.171Z,19.10
2019-06-26T13:01:29.408Z,10.37
2019-06-26T13:03:58.478Z,14.80
2019-06-26T13:06:27.604Z,16.47
2019-06-26T13:08:56.803Z,16.37
2019-06-26T13:11:25.928Z,13.03
2019-06-26T13:14:02.379Z,10.93
2019-06-26T13:16:25.968Z,15.43
2019-06-26T13:18:55.221Z,14.90
2019-06-26T13:21:24.361Z,10.90
2019-06-26T13:23:53.501Z,8.30
2019-06-26T13:26:22.499Z,7.20
2019-06-26T13:28:51.474Z,8.97
2019-06-26T13:31:20.606Z,7.03
2019-06-26T13:33:49.665Z,7.13
2019-06-26T13:36:18.764Z,10.00
2019-06-26T13:38:47.854Z,7.80
2019-06-26T13:41:16.911Z,12.60
2019-06-26T13:43:45.917Z,5.60
2019-06-26T13:46:14.919Z,7.87
2019-06-26T13:48:43.877Z,7.33
2019-06-26T13:51:12.930Z,8.63
2019-06-26T13:53:41.933Z,6.43
2019-06-26T13:56:11.203Z,11.80
2019-06-26T13:58:41.005Z,7.50
2019-06-26T14:01:10.078Z,6.90
2019-06-26T14:03:39.233Z,7.30
2019-06-26T14:06:08.366Z,13.07
2019-06-26T14:08:37.368Z,10.80
2019-06-26T14:11:07.547Z,8.77
2019-06-26T14:13:36.817Z,10.80
2019-06-26T14:16:05.876Z,7.90
2019-06-26T14:18:34.942Z,8.40
2019-06-26T14:21:04.006Z,7.37
2019-06-26T14:23:33.066Z,8.70
2019-06-26T14:26:02.137Z,9.73
2019-06-26T14:28:31.243Z,7.00
2019-06-26T14:31:00.415Z,7.50
2019-06-26T14:33:29.484Z,4.70
2019-06-26T14:35:58.609Z,5.30
2019-06-26T14:38:27.556Z,7.53
2019-06-26T14:40:56.624Z,9.17
2019-06-26T14:43:25.681Z,9.80
2019-06-26T14:45:54.800Z,10.87
2019-06-26T14:48:23.841Z,7.40
2019-06-26T14:50:52.849Z,6.27
2019-06-26T14:53:21.817Z,7.20
2019-06-26T14:55:50.926Z,10.13
2019-06-26T14:58:20.091Z,5.63
2019-06-26T15:00:49.216Z,7.30
2019-06-26T15:03:18.202Z,7.20
2019-06-26T15:05:47.198Z,7.00
2019-06-26T15:08:16.226Z,6.50
2019-06-26T15:10:45.333Z,6.43
2019-06-26T15:13:14.490Z,6.20
2019-06-26T15:15:43.762Z,5.43
2019-06-26T15:18:12.937Z,9.27
2019-06-26T15:20:41.963Z,6.80
2019-06-26T15:23:11.039Z,4.67
2019-06-26T15:25:40.111Z,7.33
2019-06-26T15:28:10.440Z,7.13
2019-06-26T15:30:39.834Z,8.37
2019-06-26T15:33:08.916Z,4.77
2019-06-26T15:35:38.009Z,5.70
2019-06-26T15:38:06.983Z,6.23
2019-06-26T15:40:36.102Z,9.67
2019-06-26T15:43:05.129Z,7.20
2019-06-26T15:45:34.207Z,4.83
2019-06-26T15:48:03.228Z,3.93
2019-06-26T15:50:32.399Z,5.90
2019-06-26T15:53:01.482Z,5.27
2019-06-26T15:55:30.486Z,5.77
2019-06-26T15:57:59.660Z,7.37
2019-06-26T16:00:28.628Z,6.43
2019-06-26T16:02:57.633Z,5.40
2019-06-26T16:05:26.657Z,6.93
2019-06-26T16:07:55.801Z,9.27
2019-06-26T16:10:25.031Z,6.50
2019-06-26T16:12:54.013Z,5.33
2019-06-26T16:15:23.390Z,4.97
2019-06-26T16:18:06.932Z,9.53
2019-06-26T16:20:35.871Z,3.90
2019-06-26T16:23:05.012Z,3.70
2019-06-26T16:25:34.210Z,4.00
2019-06-26T16:28:05.849Z,3.47
2019-06-26T16:30:33.974Z,5.43
2019-06-26T16:33:02.958Z,9.80
2019-06-26T16:35:32.017Z,5.93
2019-06-26T16:38:01.009Z,2.67
2019-06-26T16:40:30.083Z,4.00
2019-06-26T16:42:59.138Z,3.07
2019-06-26T16:45:28.192Z,4.70
2019-06-26T16:47:57.218Z,2.53
2019-06-26T16:50:26.279Z,8.03
2019-06-26T16:52:55.333Z,5.90
2019-06-26T16:55:25.360Z,5.20
2019-06-26T16:57:54.442Z,4.23
2019-06-26T17:00:23.620Z,5.50
2019-06-26T17:02:52.882Z,5.10
2019-06-26T17:05:21.899Z,6.17
2019-06-26T17:07:50.953Z,8.83
2019-06-26T17:10:20.860Z,8.07
2019-06-26T17:12:50.084Z,6.27
2019-06-26T17:15:20.165Z,8.13
2019-06-26T17:17:49.158Z,7.10
2019-06-26T17:20:18.431Z,8.97
2019-06-26T17:23:01.018Z,7.87
2019-06-26T17:25:18.432Z,7.40
2019-06-26T17:27:47.523Z,8.37
2019-06-26T17:30:16.861Z,9.47
2019-06-26T17:32:45.912Z,6.80
2019-06-26T17:35:14.958Z,8.07
2019-06-26T17:37:44.457Z,9.53
2019-06-26T17:40:14.397Z,7.03
2019-06-26T17:42:43.637Z,5.37
2019-06-26T17:45:13.737Z,14.73
2019-06-26T17:47:42.900Z,9.33
2019-06-26T17:50:12.535Z,5.97
2019-06-26T17:52:41.848Z,10.87
2019-06-26T17:55:11.711Z,11.47
2019-06-26T17:57:41.317Z,8.40
2019-06-26T18:00:12.915Z,5.80
2019-06-26T18:02:42.075Z,5.27
2019-06-26T18:05:11.547Z,4.30
2019-06-26T18:07:40.732Z,4.00
2019-06-26T18:10:11.134Z,4.80
2019-06-26T18:12:40.189Z,6.70
2019-06-26T18:15:09.496Z,7.50
2019-06-26T18:17:38.568Z,5.83
2019-06-26T18:20:12.019Z,5.90
2019-06-26T18:22:42.365Z,4.17
2019-06-26T18:25:12.046Z,5.27
2019-06-26T18:27:42.386Z,4.53
2019-06-26T18:30:13.480Z,4.13
2019-06-26T18:32:43.213Z,3.70
2019-06-26T18:35:12.560Z,4.53
2019-06-26T18:37:41.777Z,5.70
2019-06-26T18:40:13.376Z,4.30
2019-06-26T18:42:42.479Z,5.30
2019-06-26T18:45:11.735Z,4.03
2019-06-26T18:47:40.836Z,4.70
2019-06-26T18:50:10.196Z,5.30
2019-06-26T18:52:39.305Z,6.60
2019-06-26T18:55:09.082Z,6.87
2019-06-26T18:57:38.138Z,5.03
2019-06-26T19:00:07.519Z,6.03
2019-06-26T19:02:36.565Z,7.67
2019-06-26T19:05:06.445Z,3.40
2019-06-26T19:07:35.502Z,10.77
2019-06-26T19:10:05.465Z,5.00
2019-06-26T19:12:34.645Z,12.30
2019-06-26T19:15:03.818Z,4.87
2019-06-26T19:17:32.899Z,4.93
2019-06-26T19:20:02.187Z,5.87
2019-06-26T19:22:31.489Z,5.30
2019-06-26T19:25:00.558Z,5.13
2019-06-26T19:27:30.360Z,6.47
2019-06-26T19:29:59.367Z,4.13
2019-06-26T19:32:28.441Z,7.00
2019-06-26T19:34:57.474Z,7.17
2019-06-26T19:37:26.425Z,3.47
2019-06-26T19:39:55.497Z,4.50
2019-06-26T19:42:24.564Z,5.20
2019-06-26T19:44:53.603Z,6.10
2019-06-26T19:47:22.582Z,9.23
2019-06-26T19:49:51.865Z,5.83
2019-06-26T19:52:20.923Z,11.37
2019-06-26T19:54:50.056Z,3.83
2019-06-26T19:57:19.183Z,8.43
2019-06-26T19:59:48.355Z,5.23
2019-06-26T20:02:17.326Z,5.57
2019-06-26T20:04:48.388Z,8.60
2019-06-26T20:07:17.244Z,6.77
2019-06-26T20:09:46.315Z,5.80
2019-06-26T20:12:15.336Z,9.20
2019-06-26T20:14:44.467Z,6.80
2019-06-26T20:17:13.543Z,11.30
2019-06-26T20:19:42.579Z,11.20
2019-06-26T20:22:11.761Z,6.60
2019-06-26T20:24:44.583Z,4.70
2019-06-26T20:27:11.639Z,6.83
2019-06-26T20:29:40.746Z,8.90
2019-06-26T20:32:09.865Z,6.53
2019-06-26T20:34:39.032Z,11.17
2019-06-26T20:37:08.182Z,10.03
2019-06-26T20:39:37.218Z,10.40
2019-06-26T20:42:06.385Z,9.47
2019-06-26T20:44:35.466Z,6.97
2019-06-26T20:47:04.944Z,6.40
2019-06-26T20:49:34.368Z,5.80
2019-06-26T20:52:03.266Z,5.40
2019-06-26T20:54:32.314Z,7.17
2019-06-26T20:57:01.375Z,8.70
2019-06-26T20:59:30.566Z,6.60
2019-06-26T21:01:59.689Z,7.57
2019-06-26T21:04:28.959Z,5.90
2019-06-26T21:06:58.083Z,7.77
2019-06-26T21:09:27.199Z,6.70
2019-06-26T21:11:56.234Z,6.13
2019-06-26T21:14:25.178Z,6.67
2019-06-26T21:16:54.225Z,6.23
2019-06-26T21:19:23.365Z,6.57
2019-06-26T21:21:52.497Z,5.60
2019-06-26T21:24:21.637Z,7.73
2019-06-26T21:26:50.992Z,4.93
2019-06-26T21:29:20.062Z,9.93
2019-06-26T21:31:48.979Z,7.67
2019-06-26T21:34:18.111Z,6.80
2019-06-26T21:36:47.069Z,2.97
2019-06-26T21:39:16.057Z,5.20
2019-06-26T21:41:44.960Z,3.40
2019-06-26T21:44:13.914Z,4.67
2019-06-26T21:46:42.933Z,8.80
2019-06-26T21:49:11.900Z,6.20
2019-06-26T21:51:40.876Z,7.23
2019-06-26T21:54:09.846Z,4.83
2019-06-26T21:56:38.991Z,7.23
2019-06-26T21:59:08.074Z,4.13
2019-06-26T22:01:38.121Z,7.50
2019-06-26T22:04:07.955Z,7.80
2019-06-26T22:09:05.974Z,8.93
2019-06-26T22:11:35.287Z,7.13
2019-06-26T22:14:04.616Z,11.17
2019-06-26T22:16:33.695Z,11.83
2019-06-26T22:19:02.823Z,5.50
2019-06-26T22:21:31.873Z,9.73
2019-06-26T22:24:00.901Z,10.00
2019-06-26T22:26:29.964Z,6.77
2019-06-26T22:28:59.042Z,6.20
2019-06-26T22:31:28.062Z,6.90
2019-06-26T22:33:57.367Z,8.80
2019-06-26T22:36:26.582Z,8.43
2019-06-26T22:38:55.625Z,4.03
2019-06-26T22:41:24.814Z,10.53
2019-06-26T22:43:54.126Z,7.47
2019-06-26T22:46:23.167Z,9.20
2019-06-26T22:48:52.299Z,11.50
2019-06-26T22:51:21.405Z,15.63
2019-06-26T22:53:50.444Z,8.33
2019-06-26T22:56:19.537Z,6.03
2019-06-26T22:58:48.617Z,11.63
2019-06-26T23:01:17.722Z,5.43
2019-06-26T23:03:46.694Z,6.83
2019-06-26T23:06:15.834Z,10.97
2019-06-26T23:08:44.886Z,9.33
2019-06-26T23:11:13.946Z,8.83
2019-06-26T23:13:43.033Z,3.83
2019-06-26T23:16:12.117Z,6.50
2019-06-26T23:18:41.099Z,14.40
2019-06-26T23:21:10.110Z,7.10
2019-06-26T23:23:58.351Z,7.40
2019-06-26T23:26:27.381Z,10.60
2019-06-26T23:28:56.440Z,6.10
2019-06-26T23:31:25.497Z,8.30
2019-06-26T23:33:54.501Z,7.00
2019-06-26T23:36:23.538Z,5.57
2019-06-26T23:38:52.518Z,9.67
2019-06-26T23:41:21.950Z,4.27
2019-06-26T23:43:51.030Z,11.73
2019-06-26T23:46:20.369Z,6.40
2019-06-26T23:48:49.389Z,8.00
2019-06-26T23:51:18.464Z,5.80
2019-06-26T23:53:47.501Z,12.13
2019-06-26T23:56:16.661Z,8.50
2019-06-26T23:58:45.685Z,9.20
